createdAt,value
2018-11-13T00:00:28.733Z,98668.93
2018-11-13T00:02:58.047Z,98678.86
2018-11-13T00:05:26.966Z,98682.17
2018-11-13T00:07:55.574Z,98682.67
2018-11-13T00:10:24.915Z,98677.53
2018-11-13T00:12:53.474Z,98679.86
2018-11-13T00:15:22.167Z,98669.88
2018-11-13T00:17:50.916Z,98683.31
2018-11-13T00:20:19.898Z,98696.84
2018-11-13T00:22:49.239Z,98712.63
2018-11-13T00:25:19.646Z,98704.09
2018-11-13T00:27:48.290Z,98699.53
2018-11-13T00:30:19.861Z,98710.00
2018-11-13T00:32:48.730Z,98710.00
2018-11-13T00:35:18.142Z,98710.34
2018-11-13T00:37:47.226Z,98718.92
2018-11-13T00:40:17.364Z,98720.97
2018-11-13T00:42:46.441Z,98728.55
2018-11-13T00:45:14.948Z,98731.47
2018-11-13T00:47:43.443Z,98728.24
2018-11-13T00:50:15.197Z,98731.73
2018-11-13T00:52:44.501Z,98731.01
2018-11-13T00:55:13.353Z,98736.73
2018-11-13T00:57:42.636Z,98734.27
2018-11-13T01:00:14.198Z,98737.85
2018-11-13T01:02:43.708Z,98736.14
2018-11-13T01:05:14.417Z,98725.76
2018-11-13T01:07:44.113Z,98739.45
2018-11-13T01:10:14.547Z,98736.05
2018-11-13T01:12:44.498Z,98729.05
2018-11-13T01:15:14.493Z,98733.08
2018-11-13T01:17:43.950Z,98749.15
2018-11-13T01:20:12.930Z,98757.52
2018-11-13T01:22:41.638Z,98744.25
2018-11-13T01:25:11.171Z,98756.70
2018-11-13T01:27:39.917Z,98759.89
2018-11-13T01:30:10.003Z,98765.25
2018-11-13T01:32:39.539Z,98759.09
2018-11-13T01:35:11.859Z,98746.83
2018-11-13T01:37:40.448Z,98744.90
2018-11-13T01:40:13.460Z,98743.23
2018-11-13T01:42:42.402Z,98753.30
2018-11-13T01:45:12.596Z,98751.83
2018-11-13T01:47:41.385Z,98748.70
2018-11-13T01:50:10.683Z,98746.95
2018-11-13T01:52:39.192Z,98746.59
2018-11-13T01:55:09.957Z,98750.08
2018-11-13T01:57:38.802Z,98753.57
2018-11-13T02:00:15.572Z,98759.89
2018-11-13T02:02:45.161Z,98757.88
2018-11-13T02:05:13.757Z,98759.07
2018-11-13T02:07:42.309Z,98746.19
2018-11-13T02:10:10.873Z,98756.02
2018-11-13T02:12:39.478Z,98760.27
2018-11-13T02:15:08.787Z,98762.33
2018-11-13T02:17:38.214Z,98766.57
2018-11-13T02:20:09.394Z,98773.62
2018-11-13T02:22:38.178Z,98792.08
2018-11-13T02:25:08.547Z,98793.21
2018-11-13T02:27:37.092Z,98794.70
2018-11-13T02:30:06.989Z,98795.88
2018-11-13T02:32:35.611Z,98790.58
2018-11-13T02:35:04.433Z,98791.84
2018-11-13T02:37:32.920Z,98807.91
2018-11-13T02:40:01.539Z,98803.17
2018-11-13T02:42:30.820Z,98810.70
2018-11-13T02:44:59.444Z,98817.18
2018-11-13T02:47:29.408Z,98819.75
2018-11-13T02:49:58.534Z,98821.63
2018-11-13T02:52:27.096Z,98823.52
2018-11-13T02:54:55.825Z,98825.13
2018-11-13T02:57:24.349Z,98843.52
2018-11-13T02:59:52.924Z,98843.73
2018-11-13T03:02:21.449Z,98849.02
2018-11-13T03:04:50.165Z,98842.97
2018-11-13T03:07:19.826Z,98838.09
2018-11-13T03:09:48.964Z,98836.59
2018-11-13T03:12:17.800Z,98832.11
2018-11-13T03:14:46.353Z,98838.08
2018-11-13T03:17:14.843Z,98851.38
2018-11-13T03:19:43.373Z,98850.66
2018-11-13T03:22:12.518Z,98856.38
2018-11-13T03:24:41.527Z,98857.08
2018-11-13T03:27:10.193Z,98843.45
2018-11-13T03:29:39.381Z,98854.75
2018-11-13T03:32:08.056Z,98866.86
2018-11-13T03:34:36.758Z,98864.30
2018-11-13T03:37:05.616Z,98875.66
2018-11-13T03:39:34.110Z,98886.38
2018-11-13T03:42:03.020Z,98881.72
2018-11-13T03:44:31.607Z,98891.59
2018-11-13T03:47:00.813Z,98899.20
2018-11-13T03:49:29.525Z,98895.42
2018-11-13T03:51:58.079Z,98890.05
2018-11-13T03:54:26.780Z,98894.79
2018-11-13T03:56:55.474Z,98896.44
2018-11-13T03:59:24.161Z,98898.77
2018-11-13T04:01:52.732Z,98913.16
2018-11-13T04:04:21.994Z,98908.00
2018-11-13T04:06:50.748Z,98893.27
2018-11-13T04:09:19.265Z,98900.11
2018-11-13T04:11:48.422Z,98919.19
2018-11-13T04:14:16.957Z,98909.58
2018-11-13T04:16:45.472Z,98914.21
2018-11-13T04:19:13.958Z,98926.06
2018-11-13T04:21:42.723Z,98926.70
2018-11-13T04:24:11.758Z,98939.92
2018-11-13T04:26:40.264Z,98939.80
2018-11-13T04:29:08.814Z,98933.94
2018-11-13T04:31:37.319Z,98938.64
2018-11-13T04:34:06.570Z,98946.06
2018-11-13T04:36:35.134Z,98953.47
2018-11-13T04:39:04.613Z,98960.41
2018-11-13T04:41:33.678Z,98972.77
2018-11-13T04:44:02.276Z,98944.05
2018-11-13T04:46:31.548Z,98961.00
2018-11-13T04:49:00.064Z,98938.92
2018-11-13T04:51:28.871Z,98941.39
2018-11-13T04:53:57.662Z,98938.66
2018-11-13T04:56:26.204Z,98950.03
2018-11-13T04:58:54.828Z,98950.33
2018-11-13T05:01:23.324Z,98940.20
2018-11-13T05:03:52.594Z,98962.15
2018-11-13T05:06:21.475Z,98963.70
2018-11-13T05:08:50.027Z,98958.52
2018-11-13T05:11:21.656Z,98965.45
2018-11-13T05:13:50.290Z,98966.48
2018-11-13T05:16:18.873Z,98967.16
2018-11-13T05:18:47.410Z,98979.36
2018-11-13T05:21:16.381Z,98971.77
2018-11-13T05:23:44.953Z,98981.16
2018-11-13T05:26:13.516Z,98991.16
2018-11-13T05:28:42.317Z,98989.52
2018-11-13T05:31:11.041Z,98991.97
2018-11-13T05:33:39.556Z,98991.40
2018-11-13T05:36:08.120Z,99001.44
2018-11-13T05:38:37.698Z,99005.53
2018-11-13T05:41:06.378Z,99006.34
2018-11-13T05:43:35.613Z,99016.47
2018-11-13T05:46:04.166Z,99013.56
2018-11-13T05:48:33.048Z,99023.55
2018-11-13T05:51:02.114Z,99025.47
2018-11-13T05:53:30.731Z,99025.75
2018-11-13T05:55:59.270Z,99031.69
2018-11-13T05:58:27.791Z,99052.43
2018-11-13T06:00:56.499Z,99045.94
2018-11-13T06:03:24.996Z,99039.77
2018-11-13T06:05:53.525Z,99060.66
2018-11-13T06:08:22.101Z,99075.34
2018-11-13T06:10:51.785Z,99067.40
2018-11-13T06:13:20.296Z,99066.03
2018-11-13T06:15:49.468Z,99088.89
2018-11-13T06:18:18.260Z,99098.58
2018-11-13T06:20:47.826Z,99098.43
2018-11-13T06:23:16.321Z,99106.30
2018-11-13T06:25:44.934Z,99112.31
2018-11-13T06:28:13.532Z,99122.48
2018-11-13T06:30:42.164Z,99122.24
2018-11-13T06:33:10.685Z,99123.94
2018-11-13T06:35:40.189Z,99108.81
2018-11-13T06:38:08.709Z,99118.00
2018-11-13T06:40:38.070Z,99100.84
2018-11-13T06:43:06.935Z,99102.42
2018-11-13T06:45:35.527Z,99110.99
2018-11-13T06:48:04.190Z,99117.10
2018-11-13T06:50:32.659Z,99132.91
2018-11-13T06:53:01.224Z,99155.94
2018-11-13T06:55:31.771Z,99152.36
2018-11-13T06:58:00.529Z,99162.46
2018-11-13T07:00:29.024Z,99165.53
2018-11-13T07:02:57.637Z,99163.84
2018-11-13T07:05:26.144Z,99170.30
2018-11-13T07:07:54.850Z,99187.78
2018-11-13T07:10:24.446Z,99184.80
2018-11-13T07:12:53.848Z,99193.22
2018-11-13T07:15:23.692Z,99190.80
2018-11-13T07:17:53.603Z,99181.94
2018-11-13T07:20:23.302Z,99188.59
2018-11-13T07:22:52.068Z,99188.80
2018-11-13T07:25:21.992Z,99179.00
2018-11-13T07:27:50.819Z,99187.13
2018-11-13T07:30:20.006Z,99189.36
2018-11-13T07:32:49.140Z,99200.93
2018-11-13T07:35:19.308Z,99205.88
2018-11-13T07:37:49.793Z,99212.70
2018-11-13T07:40:18.615Z,99214.02
2018-11-13T07:42:47.828Z,99222.55
2018-11-13T07:45:16.895Z,99221.02
2018-11-13T07:47:49.011Z,99224.69
2018-11-13T07:50:19.131Z,99230.80
2018-11-13T07:52:48.384Z,99241.89
2018-11-13T07:55:17.850Z,99235.45
2018-11-13T07:57:47.039Z,99238.25
2018-11-13T08:00:19.003Z,99238.10
2018-11-13T08:02:49.092Z,99246.71
2018-11-13T08:05:17.959Z,99253.19
2018-11-13T08:07:46.700Z,99256.45
2018-11-13T08:10:15.473Z,99270.25
2018-11-13T08:12:44.207Z,99278.69
2018-11-13T08:15:14.859Z,99285.25
2018-11-13T08:17:44.275Z,99295.49
2018-11-13T08:20:14.100Z,99290.96
2018-11-13T08:22:43.400Z,99294.11
2018-11-13T08:25:12.863Z,99297.46
2018-11-13T08:27:42.162Z,99297.13
2018-11-13T08:30:13.305Z,99300.05
2018-11-13T08:32:42.014Z,99296.14
2018-11-13T08:35:10.677Z,99293.76
2018-11-13T08:37:39.270Z,99288.67
2018-11-13T08:40:10.318Z,99291.06
2018-11-13T08:42:38.887Z,99293.39
2018-11-13T08:45:08.910Z,99295.25
2018-11-13T08:47:37.707Z,99297.95
2018-11-13T08:50:06.647Z,99277.94
2018-11-13T08:52:35.266Z,99254.63
2018-11-13T08:55:04.180Z,99250.12
2018-11-13T08:57:34.179Z,99256.41
2018-11-13T09:00:03.223Z,99259.75
2018-11-13T09:02:31.721Z,99265.61
2018-11-13T09:05:00.548Z,99268.64
2018-11-13T09:07:29.100Z,99276.57
2018-11-13T09:09:58.291Z,99268.94
2018-11-13T09:12:26.939Z,99274.52
2018-11-13T09:14:56.307Z,99279.52
2018-11-13T09:17:24.914Z,99276.00
2018-11-13T09:19:53.609Z,99262.14
2018-11-13T09:22:22.177Z,99265.25
2018-11-13T09:24:50.769Z,99287.47
2018-11-13T09:27:19.366Z,99286.73
2018-11-13T09:29:48.092Z,99287.61
2018-11-13T09:32:16.597Z,99296.94
2018-11-13T09:34:45.137Z,99306.25
2018-11-13T09:37:13.809Z,99323.63
2018-11-13T09:39:43.266Z,99329.91
2018-11-13T09:42:12.064Z,99328.13
2018-11-13T09:44:40.579Z,99332.11
2018-11-13T09:47:09.138Z,99318.20
2018-11-13T09:49:37.702Z,99303.97
2018-11-13T09:52:06.476Z,99296.09
2018-11-13T09:54:35.100Z,99310.57
2018-11-13T09:57:03.656Z,99331.55
2018-11-13T09:59:32.247Z,99332.08
2018-11-13T10:02:01.143Z,99341.00
2018-11-13T10:04:29.958Z,99346.25
2018-11-13T10:06:57.970Z,99353.13
2018-11-13T10:09:27.488Z,99350.44
2018-11-13T10:11:56.036Z,99341.41
2018-11-13T10:14:24.798Z,99334.23
2018-11-13T10:16:53.610Z,99335.33
2018-11-13T10:19:22.757Z,99335.18
2018-11-13T10:21:51.670Z,99340.72
2018-11-13T10:24:20.788Z,99338.48
2018-11-13T10:26:49.394Z,99350.95
2018-11-13T10:29:18.486Z,99358.22
2018-11-13T10:31:47.797Z,99365.16
2018-11-13T10:34:17.338Z,99360.63
2018-11-13T10:36:46.303Z,99359.28
2018-11-13T10:39:15.849Z,99363.43
2018-11-13T10:41:44.958Z,99373.21
2018-11-13T10:44:13.507Z,99370.43
2018-11-13T10:46:42.117Z,99369.25
2018-11-13T10:49:11.337Z,99362.83
2018-11-13T10:51:39.724Z,99366.91
2018-11-13T10:54:08.227Z,99361.17
2018-11-13T10:56:37.637Z,99374.89
2018-11-13T10:59:07.415Z,99383.70
2018-11-13T11:01:41.329Z,99396.67
2018-11-13T11:04:14.015Z,99395.08
2018-11-13T11:06:42.521Z,99385.48
2018-11-13T11:09:10.996Z,99395.92
2018-11-13T11:11:40.371Z,99412.33
2018-11-13T11:14:11.572Z,99403.57
2018-11-13T11:16:43.691Z,99387.76
2018-11-13T11:19:15.914Z,99392.16
2018-11-13T11:21:44.813Z,99392.70
2018-11-13T11:24:13.710Z,99409.39
2018-11-13T11:26:43.062Z,99403.66
2018-11-13T11:29:12.765Z,99404.53
2018-11-13T11:31:41.573Z,99400.84
2018-11-13T11:34:10.256Z,99407.64
2018-11-13T11:36:40.600Z,99405.24
2018-11-13T11:39:10.873Z,99407.37
2018-11-13T11:41:39.651Z,99429.00
2018-11-13T11:44:09.080Z,99431.98
2018-11-13T11:46:38.097Z,99439.26
2018-11-13T11:49:06.914Z,99436.56
2018-11-13T11:51:37.042Z,99428.69
2018-11-13T11:54:06.544Z,99414.73
2018-11-13T11:56:35.255Z,99427.61
2018-11-13T11:59:03.785Z,99422.20
2018-11-13T12:01:32.417Z,99423.23
2018-11-13T12:04:00.946Z,99431.30
2018-11-13T12:06:29.599Z,99415.45
2018-11-13T12:08:58.342Z,99432.65
2018-11-13T12:11:26.892Z,99447.09
2018-11-13T12:13:55.577Z,99439.61
2018-11-13T12:16:25.273Z,99438.88
2018-11-13T12:18:53.921Z,99439.41
2018-11-13T12:21:22.479Z,99446.47
2018-11-13T12:23:51.159Z,99457.71
2018-11-13T12:26:20.755Z,99448.06
2018-11-13T12:28:49.317Z,99453.08
2018-11-13T12:31:17.816Z,99456.47
2018-11-13T12:33:46.613Z,99457.70
2018-11-13T12:36:15.204Z,99464.59
2018-11-13T12:38:44.059Z,99464.03
2018-11-13T12:41:13.890Z,99466.28
2018-11-13T12:43:42.481Z,99462.67
2018-11-13T12:46:33.111Z,99462.56
2018-11-13T12:49:05.036Z,99465.66
2018-11-13T12:51:40.226Z,99472.02
2018-11-13T12:54:10.587Z,99471.13
2018-11-13T12:56:39.963Z,99477.75
2018-11-13T12:59:10.259Z,99476.07
2018-11-13T13:01:38.765Z,99481.16
2018-11-13T13:04:08.014Z,99478.64
2018-11-13T13:06:38.885Z,99486.44
2018-11-13T13:09:10.291Z,99486.95
2018-11-13T13:11:38.827Z,99481.53
2018-11-13T13:14:12.974Z,99478.94
2018-11-13T13:16:41.543Z,99493.33
2018-11-13T13:19:11.802Z,99501.43
2018-11-13T13:21:42.576Z,99503.28
2018-11-13T13:24:11.383Z,99504.67
2018-11-13T13:26:39.964Z,99511.30
2018-11-13T13:29:08.918Z,99507.58
2018-11-13T13:31:39.168Z,99496.97
2018-11-13T13:34:08.062Z,99499.65
2018-11-13T13:36:36.755Z,99496.88
2018-11-13T13:48:21.917Z,99507.59
2018-11-13T13:50:51.295Z,99505.05
2018-11-13T13:53:20.465Z,99503.45
2018-11-13T13:55:49.910Z,99501.92
2018-11-13T13:58:19.129Z,99492.39
2018-11-13T14:00:47.949Z,99496.77
2018-11-13T14:03:16.594Z,99504.25
2018-11-13T14:05:45.885Z,99497.77
2018-11-13T14:08:15.142Z,99503.84
2018-11-13T14:10:43.771Z,99511.72
2018-11-13T14:13:12.878Z,99501.91
2018-11-13T14:15:41.708Z,99508.95
2018-11-13T14:18:10.450Z,99515.38
2018-11-13T14:20:39.074Z,99521.39
2018-11-13T14:23:07.659Z,99520.09
2018-11-13T14:25:36.191Z,99518.29
2018-11-13T14:28:04.773Z,99519.80
2018-11-13T14:30:34.846Z,99528.39
2018-11-13T14:33:11.588Z,99527.41
2018-11-13T14:35:41.661Z,99527.69
2018-11-13T14:38:10.368Z,99532.70
2018-11-13T14:40:40.250Z,99536.94
2018-11-13T14:43:09.176Z,99541.75
2018-11-13T14:45:37.760Z,99535.58
2018-11-13T14:48:07.284Z,99536.82
2018-11-13T14:50:36.734Z,99543.35
2018-11-13T14:53:05.733Z,99548.77
2018-11-13T14:55:37.172Z,99551.58
2018-11-13T14:58:09.965Z,99548.30
2018-11-13T15:00:40.927Z,99560.02
2018-11-13T15:03:11.141Z,99556.05
2018-11-13T15:05:39.811Z,99552.11
2018-11-13T15:08:09.653Z,99553.11
2018-11-13T15:10:48.755Z,99560.84
2018-11-13T15:13:17.617Z,99550.83
2018-11-13T15:15:47.397Z,99548.81
2018-11-13T15:18:16.402Z,99555.13
2018-11-13T15:20:45.802Z,99559.28
2018-11-13T15:23:14.884Z,99566.77
2018-11-13T15:25:43.488Z,99570.03
2018-11-13T15:28:13.315Z,99569.98
2018-11-13T15:30:45.681Z,99572.20
2018-11-13T15:33:24.583Z,99572.95
2018-11-13T15:35:53.337Z,99577.31
2018-11-13T15:38:22.573Z,99584.95
2018-11-13T15:40:51.313Z,99587.74
2018-11-13T15:43:19.891Z,99592.03
2018-11-13T15:45:48.562Z,99588.77
2018-11-13T15:48:17.629Z,99604.50
2018-11-13T15:50:46.342Z,99600.36
2018-11-13T15:53:15.648Z,99596.13
2018-11-13T15:55:44.204Z,99590.20
2018-11-13T15:58:13.042Z,99581.44
2018-11-13T16:00:42.563Z,99591.69
2018-11-13T16:03:16.976Z,99585.66
2018-11-13T16:05:46.987Z,99588.80
2018-11-13T16:08:16.260Z,99596.98
2018-11-13T16:10:44.938Z,99588.47
2018-11-13T16:13:14.046Z,99601.20
2018-11-13T16:15:43.606Z,99605.95
2018-11-13T16:18:13.904Z,99606.31
2018-11-13T16:20:42.620Z,99607.73
2018-11-13T16:23:11.385Z,99606.53
2018-11-13T16:25:41.214Z,99603.22
2018-11-13T16:28:10.286Z,99613.59
2018-11-13T16:30:40.235Z,99615.30
2018-11-13T16:33:08.992Z,99614.47
2018-11-13T16:35:37.738Z,99621.08
2018-11-13T16:38:08.111Z,99617.25
2018-11-13T16:40:36.696Z,99628.27
2018-11-13T16:43:05.590Z,99626.13
2018-11-13T16:45:35.793Z,99630.28
2018-11-13T16:48:05.421Z,99631.97
2018-11-13T16:50:36.225Z,99636.81
2018-11-13T16:53:05.906Z,99637.14
2018-11-13T16:55:40.651Z,99636.15
2018-11-13T16:58:11.771Z,99641.00
2018-11-13T17:00:40.501Z,99649.86
2018-11-13T17:03:09.013Z,99645.45
2018-11-13T17:05:38.520Z,99646.41
2018-11-13T17:08:08.167Z,99658.09
2018-11-13T17:10:39.367Z,99654.92
2018-11-13T17:13:08.179Z,99661.80
2018-11-13T17:15:36.977Z,99660.13
2018-11-13T17:18:06.286Z,99665.80
2018-11-13T17:20:35.223Z,99666.37
2018-11-13T17:23:04.103Z,99667.69
2018-11-13T17:25:35.235Z,99667.08
2018-11-13T17:28:05.160Z,99664.71
2018-11-13T17:30:35.790Z,99665.80
2018-11-13T17:33:05.917Z,99670.48
2018-11-13T17:35:34.448Z,99670.03
2018-11-13T17:38:03.692Z,99669.80
2018-11-13T17:40:33.813Z,99669.05
2018-11-13T17:43:03.896Z,99674.45
2018-11-13T17:45:37.434Z,99682.27
2018-11-13T17:48:07.589Z,99688.16
2018-11-13T17:50:38.192Z,99689.70
2018-11-13T17:53:08.076Z,99692.50
2018-11-13T17:55:37.596Z,99695.41
2018-11-13T17:58:09.009Z,99690.77
2018-11-13T18:00:40.816Z,99700.42
2018-11-13T18:03:10.983Z,99694.05
2018-11-13T18:05:40.939Z,99700.78
2018-11-13T18:08:11.125Z,99706.63
2018-11-13T18:10:41.371Z,99710.58
2018-11-13T18:13:10.567Z,99710.54
2018-11-13T18:15:41.938Z,99712.11
2018-11-13T18:18:10.707Z,99722.41
2018-11-13T18:20:40.315Z,99719.52
2018-11-13T18:23:09.580Z,99715.57
2018-11-13T18:25:38.329Z,99721.22
2018-11-13T18:28:07.369Z,99721.58
2018-11-13T18:30:37.272Z,99729.25
2018-11-13T18:33:06.509Z,99728.16
2018-11-13T18:35:36.367Z,99723.91
2018-11-13T18:38:06.656Z,99724.49
2018-11-13T18:40:35.570Z,99728.69
2018-11-13T18:43:04.633Z,99722.64
2018-11-13T18:45:34.682Z,99721.09
2018-11-13T18:48:03.226Z,99724.49
2018-11-13T18:50:33.212Z,99719.98
2018-11-13T18:53:01.804Z,99723.62
2018-11-13T18:55:31.094Z,99724.48
2018-11-13T18:58:00.442Z,99723.93
2018-11-13T19:00:30.984Z,99719.64
2018-11-13T19:03:00.617Z,99726.98
2018-11-13T19:05:29.299Z,99727.95
2018-11-13T19:07:58.269Z,99729.38
2018-11-13T19:10:33.421Z,99723.59
2018-11-13T19:13:03.166Z,99732.92
2018-11-13T19:15:33.347Z,99732.89
2018-11-13T19:18:02.240Z,99731.75
2018-11-13T19:20:36.565Z,99730.94
2018-11-13T19:23:05.257Z,99732.45
2018-11-13T19:25:34.865Z,99731.38
2018-11-13T19:28:03.550Z,99732.48
2018-11-13T19:30:32.234Z,99734.51
2018-11-13T19:33:00.873Z,99733.27
2018-11-13T19:35:29.531Z,99734.37
2018-11-13T19:37:58.545Z,99736.24
2018-11-13T19:40:29.462Z,99733.52
2018-11-13T19:42:59.070Z,99737.08
2018-11-13T19:45:28.365Z,99739.88
2018-11-13T19:47:57.031Z,99742.39
2018-11-13T19:50:27.172Z,99743.64
2018-11-13T19:52:55.731Z,99744.92
2018-11-13T19:55:25.223Z,99741.94
2018-11-13T19:57:53.754Z,99743.18
2018-11-13T20:00:30.087Z,99755.61
2018-11-13T20:03:00.326Z,99752.67
2018-11-13T20:05:29.666Z,99751.57
2018-11-13T20:07:58.521Z,99753.65
2018-11-13T20:10:28.656Z,99761.20
2018-11-13T20:12:59.381Z,99766.73
2018-11-13T20:15:29.859Z,99771.61
2018-11-13T20:17:58.420Z,99760.02
2018-11-13T20:20:28.152Z,99764.80
2018-11-13T20:22:57.115Z,99763.17
2018-11-13T20:25:27.995Z,99763.02
2018-11-13T20:27:56.588Z,99766.59
2018-11-13T20:30:34.746Z,99776.50
2018-11-13T20:33:03.598Z,99777.23
2018-11-13T20:35:38.116Z,99775.04
2018-11-13T20:38:07.592Z,99772.70
2018-11-13T20:40:38.151Z,99777.58
2018-11-13T20:43:09.298Z,99776.94
2018-11-13T20:45:38.102Z,99771.02
2018-11-13T20:48:07.074Z,99783.22
2018-11-13T20:50:35.888Z,99777.32
2018-11-13T20:53:19.979Z,99780.37
2018-11-13T20:55:57.721Z,99781.45
2018-11-13T21:02:00.251Z,99786.06
2018-11-13T21:04:48.968Z,99783.73
2018-11-13T21:10:22.207Z,99783.87
2018-11-13T21:12:54.568Z,99789.17
2018-11-13T21:15:23.448Z,99786.52
2018-11-13T21:17:56.389Z,99787.80
2018-11-13T21:20:31.809Z,99787.25
2018-11-13T21:23:20.405Z,99789.51
2018-11-13T21:28:56.699Z,99787.22
2018-11-13T21:31:25.689Z,99782.53
2018-11-13T21:33:54.537Z,99781.19
2018-11-13T21:36:24.211Z,99783.66
2018-11-13T21:38:53.184Z,99783.03
2018-11-13T21:41:38.801Z,99779.30
2018-11-13T21:47:33.353Z,99784.80
2018-11-13T21:50:19.828Z,99782.55
2018-11-13T21:53:02.885Z,99786.47
2018-11-13T21:55:32.479Z,99782.25
2018-11-13T21:58:01.068Z,99784.88
2018-11-13T22:00:31.721Z,99784.95
2018-11-13T22:03:06.067Z,99786.63
2018-11-13T22:05:35.235Z,99790.78
2018-11-13T22:08:04.792Z,99794.28
2018-11-13T22:10:33.445Z,99793.41
2018-11-13T22:13:02.278Z,99793.23
2018-11-13T22:15:31.463Z,99787.54
2018-11-13T22:18:00.881Z,99791.59
2018-11-13T22:20:28.983Z,99785.36
2018-11-13T22:22:58.726Z,99790.84
2018-11-13T22:25:27.886Z,99789.72
2018-11-13T22:27:57.680Z,99786.72
2018-11-13T22:30:28.636Z,99786.36
2018-11-13T22:32:57.545Z,99783.83
2018-11-13T22:35:26.173Z,99781.88
2018-11-13T22:37:54.963Z,99782.54
2018-11-13T22:40:25.843Z,99782.40
2018-11-13T22:42:54.637Z,99784.72
2018-11-13T22:45:28.598Z,99788.92
2018-11-13T22:47:58.692Z,99785.45
2018-11-13T22:50:32.113Z,99790.44
2018-11-13T22:53:00.973Z,99787.47
2018-11-13T22:55:29.852Z,99789.73
2018-11-13T22:57:59.768Z,99784.98
2018-11-13T23:00:39.009Z,99788.37
2018-11-13T23:03:08.998Z,99783.52
2018-11-13T23:05:37.669Z,99784.84
2018-11-13T23:08:07.201Z,99787.87
2018-11-13T23:10:35.744Z,99787.07
2018-11-13T23:13:04.688Z,99791.95
2018-11-13T23:15:36.029Z,99780.06
2018-11-13T23:18:04.885Z,99776.05
2018-11-13T23:20:33.390Z,99769.65
2018-11-13T23:23:02.209Z,99776.80
2018-11-13T23:25:31.970Z,99776.23
2018-11-13T23:28:00.677Z,99773.73
2018-11-13T23:30:29.497Z,99767.64
2018-11-13T23:32:59.532Z,99768.92
2018-11-13T23:35:28.422Z,99768.83
2018-11-13T23:37:58.393Z,99766.11
2018-11-13T23:40:27.853Z,99770.47
2018-11-13T23:42:56.634Z,99763.45
2018-11-13T23:45:26.686Z,99770.84
2018-11-13T23:47:55.178Z,99771.58
2018-11-13T23:50:23.978Z,99766.20
2018-11-13T23:52:52.866Z,99771.56
2018-11-13T23:55:21.472Z,99770.11
2018-11-13T23:57:50.182Z,99775.23
